Main page
METAR-TAF:

METAR-TAF

Airports :

Lakeland Airport

Minocqua / Woodruff, Wisconsin, United States

latitude: 45-56N, longitude: 089-44W, elevation: 1627 ft

Current weather observation

The report was made 22 minutes ago, at 03:35 UTC
Wind 5 mph from the West
Temperature 52°F
Humidity 71%
Pressure 29.76 in. Hg
Visibility: 10 miles
Clear sky

METAR: KARV 230335Z AUTO 27004KT 10SM CLR 11/06 A2976 RMK AO2 T01050061

Time: 22:57 (03:57 UTC)


TAF: missing

Weather observations and forecasts of more than 4000 airports (METAR and TAF reports).

The available stations are represented by yellow and red dots on the map.

Hover mouse over dot to see the name of the station.

Then click to see weather observations and forecasts.

To change the map : click on the green buttons with a black cross to zoom in, on the green button with a dash to zoom out, or on the green arrows for adjacent maps.


METAR-TAF: